Hauptseite
METAR-TAF:

METAR-TAF

Flughäfen :

Newcastle Airport

Newcastle upon Tyne, England

Breite: 55-02N, Länge: 001-42W, Höhe: 81 m

Beobachtung

Neuester Wetterbericht von vor 19 Minuten, um 10:50 UTC
Wind 6 kt aus Süd/Südost, variierte zwischen Ost/Südost und Süd/Südwest
Temperatur 21°C
Luftfeuchtigkeit 43%
Luftdruck 1019 hPa
Sichtweite 10 km oder mehr
keine Wolken unter 1500 m und keine Kumulonimbus oder Gewitterwolken

METAR: EGNT 211050Z 16006KT 110V200 CAVOK 21/08 Q1019

Zeit: 12:09 (11:09 UTC)

Prognose

Neuester Wetterbericht von vor 6 Stunden und 10 Minuten, um 04:59 UTC
Gültige Prognose vom 21 um 06 UTC bis 22 um 06 UTC
Wind 5 kt aus Süd
Sichtweite 10 km oder mehr
keine Wolken unter 1500 m und keine Kumulonimbus oder Gewitterwolken
Wahrscheinlichkeit 30% :
Zeitweise
vom 21 um 06 UTC bis 21 um 08 UTC
Sichtweite: 8000 m

TAF: EGNT 210459Z 2106/2206 19005KT CAVOK PROB30 TEMPO 2106/2108 8000

Wetterbeobachtungen und Prognosen von mehr als 4000 Flughäfen (METAR und TAF Bericht).

Die verfügbaren Stationen werden durch gelbe und rote Markierungen auf der Karte dargestellt.

Führen Sie die Maus auf sie, um den Namen der Station zu sehen.

Darauf klicken, um die Beobachtung von Wetterbeobachtungen und Prognosen zu sehen.

Um die Karte zu ändern : klicken Sie auf den grünen Tasten mit einem schwarzen Kreuz Zum Vergrößern, auf den grünen Button mit einem Gedankenstrich zu verkleinern, oder auf die grünen Pfeile für benachbarte Karten.


METAR-TAF: